Time;durP1;ratioP1;P1;durP2;ratioP2;P2;SDS_P1;SDS_P2;PMS_P1;PMS_P2;Temp;Humidity;BMP_temperature;BMP_pressure;BME280_temperature;BME280_humidity;BME280_pressure;Samples;Min_cycle;Max_cycle;Signal;HPM_P1;HPM_P2
2022/12/14 00:00:54;;;;;;;3.13;2.63;;;;;;;;;;2093408;28;20032;-77
2022/12/14 00:02:13;;;;;;;3.63;2.60;;;;;;;;;;2100115;28;20032;-77
2022/12/14 00:03:32;;;;;;;2.92;2.70;;;;;;;;;;2098687;28;20025;-78
2022/12/14 00:04:51;;;;;;;3.38;2.22;;;;;;;;;;2097462;28;20802;-77
2022/12/14 00:06:18;;;;;;;2.97;2.55;;;;;;;;;;2096667;28;20033;-77
2022/12/14 00:07:36;;;;;;;2.38;2.17;;;;;;;;;;2099840;28;20032;-77
2022/12/14 00:08:56;;;;;;;3.85;2.40;;;;;;;;;;2099664;28;20036;-76
2022/12/14 00:10:15;;;;;;;3.00;2.67;;;;;;;;;;2098198;28;20037;-77
2022/12/14 00:11:34;;;;;;;3.75;2.30;;;;;;;;;;2096536;28;20028;-76
2022/12/14 00:12:52;;;;;;;3.05;2.80;;;;;;;;;;2099008;28;20119;-77
2022/12/14 00:14:12;;;;;;;6.07;3.03;;;;;;;;;;2099705;28;20123;-76
2022/12/14 00:15:31;;;;;;;2.60;2.40;;;;;;;;;;2100621;28;20024;-77
2022/12/14 00:16:50;;;;;;;4.88;2.30;;;;;;;;;;2100637;28;20100;-76
2022/12/14 00:18:10;;;;;;;2.40;2.20;;;;;;;;;;2099487;28;20036;-77
2022/12/14 00:19:29;;;;;;;3.33;2.58;;;;;;;;;;2099722;28;20027;-76
2022/12/14 00:20:48;;;;;;;3.15;2.55;;;;;;;;;;2100543;28;20409;-77
2022/12/14 00:22:07;;;;;;;4.50;2.50;;;;;;;;;;2094160;28;20042;-76
2022/12/14 00:23:26;;;;;;;2.65;2.45;;;;;;;;;;2100038;28;20028;-76
2022/12/14 00:24:45;;;;;;;4.28;2.67;;;;;;;;;;2101128;28;20531;-77
2022/12/14 00:26:11;;;;;;;3.53;2.90;;;;;;;;;;2098054;28;20036;-76
2022/12/14 00:27:30;;;;;;;3.45;2.67;;;;;;;;;;2103393;28;20063;-77
2022/12/14 00:28:51;;;;;;;4.53;2.35;;;;;;;;;;2100064;28;20032;-77
2022/12/14 00:30:11;;;;;;;3.03;2.45;;;;;;;;;;2099814;28;21142;-76
2022/12/14 00:31:30;;;;;;;4.20;2.55;;;;;;;;;;2095422;28;20513;-77
2022/12/14 00:32:49;;;;;;;4.07;2.53;;;;;;;;;;2100606;28;20036;-77
2022/12/14 00:34:07;;;;;;;3.00;2.40;;;;;;;;;;2099929;28;20115;-77
2022/12/14 00:35:26;;;;;;;5.00;2.58;;;;;;;;;;2100676;28;20032;-77
2022/12/14 00:36:45;;;;;;;4.60;3.00;;;;;;;;;;2100132;28;20527;-77
2022/12/14 00:38:04;;;;;;;3.70;2.67;;;;;;;;;;2097015;28;20040;-76
2022/12/14 00:39:22;;;;;;;3.13;2.83;;;;;;;;;;2095735;28;20032;-77
2022/12/14 00:40:41;;;;;;;4.93;2.70;;;;;;;;;;2097200;28;20025;-76
2022/12/14 00:42:00;;;;;;;3.40;2.25;;;;;;;;;;2097519;28;20509;-76
2022/12/14 00:43:19;;;;;;;2.38;2.17;;;;;;;;;;2100692;28;20115;-77
2022/12/14 00:44:38;;;;;;;3.40;2.83;;;;;;;;;;2099343;28;20032;-77
2022/12/14 00:45:57;;;;;;;2.80;2.40;;;;;;;;;;2100866;28;20036;-77
2022/12/14 00:47:16;;;;;;;2.53;2.33;;;;;;;;;;2101115;28;20044;-77
2022/12/14 00:48:35;;;;;;;4.32;2.88;;;;;;;;;;2100130;28;20020;-77
2022/12/14 00:49:54;;;;;;;3.92;3.20;;;;;;;;;;2099480;28;20493;-77
2022/12/14 00:51:13;;;;;;;4.10;2.50;;;;;;;;;;2096830;28;20036;-77
2022/12/14 00:52:32;;;;;;;3.05;2.53;;;;;;;;;;2097411;28;20024;-77
2022/12/14 00:53:51;;;;;;;5.75;2.70;;;;;;;;;;2096686;28;20028;-77
2022/12/14 00:55:10;;;;;;;4.65;3.10;;;;;;;;;;2096710;28;20029;-77
2022/12/14 00:56:29;;;;;;;3.80;3.03;;;;;;;;;;2097512;28;20103;-77
2022/12/14 00:57:49;;;;;;;3.55;2.63;;;;;;;;;;2100639;28;20032;-77
2022/12/14 00:59:08;;;;;;;3.00;2.30;;;;;;;;;;2096954;28;20087;-77
2022/12/14 01:00:27;;;;;;;2.08;1.83;;;;;;;;;;2096614;28;20481;-77
2022/12/14 01:01:46;;;;;;;3.40;2.95;;;;;;;;;;2094320;28;20064;-77
2022/12/14 01:03:05;;;;;;;2.90;2.58;;;;;;;;;;2095209;28;20021;-77
2022/12/14 01:04:25;;;;;;;4.00;2.92;;;;;;;;;;2099197;28;20110;-77
2022/12/14 01:05:43;;;;;;;2.50;2.28;;;;;;;;;;2099051;28;20600;-77
2022/12/14 01:07:02;;;;;;;2.35;2.15;;;;;;;;;;2098905;28;20036;-77
2022/12/14 01:08:22;;;;;;;4.07;2.20;;;;;;;;;;2100147;28;20028;-77
2022/12/14 01:09:40;;;;;;;3.90;2.28;;;;;;;;;;2095942;28;20111;-78
2022/12/14 01:11:06;;;;;;;2.55;2.35;;;;;;;;;;2101167;28;20020;-77
2022/12/14 01:12:25;;;;;;;4.18;2.60;;;;;;;;;;2101334;28;20028;-77
2022/12/14 01:13:44;;;;;;;2.38;2.17;;;;;;;;;;2099885;28;20025;-77
2022/12/14 01:15:04;;;;;;;4.45;2.63;;;;;;;;;;2098622;28;20028;-77
2022/12/14 01:16:23;;;;;;;4.50;2.13;;;;;;;;;;2099083;28;20028;-76
2022/12/14 01:17:42;;;;;;;2.78;2.58;;;;;;;;;;2099872;28;20099;-76
2022/12/14 01:19:01;;;;;;;4.22;2.88;;;;;;;;;;2098974;28;20036;-76
2022/12/14 01:20:20;;;;;;;3.63;2.78;;;;;;;;;;2097790;28;20028;-76
2022/12/14 01:21:39;;;;;;;2.67;2.28;;;;;;;;;;2094517;28;20029;-77
2022/12/14 01:22:58;;;;;;;3.58;2.30;;;;;;;;;;2100461;28;20497;-77
2022/12/14 01:24:17;;;;;;;4.32;2.40;;;;;;;;;;2100140;28;20020;-77
2022/12/14 01:25:36;;;;;;;2.30;2.10;;;;;;;;;;2100873;28;20024;-77
2022/12/14 01:26:54;;;;;;;2.88;2.60;;;;;;;;;;2095892;28;20432;-76
2022/12/14 01:28:13;;;;;;;2.17;2.03;;;;;;;;;;2098117;28;20016;-77
2022/12/14 01:29:32;;;;;;;4.47;2.30;;;;;;;;;;2095970;28;20095;-77
2022/12/14 01:30:51;;;;;;;3.15;2.28;;;;;;;;;;2096113;28;20095;-76
2022/12/14 01:32:10;;;;;;;3.08;2.78;;;;;;;;;;2095905;28;20052;-76
2022/12/14 01:33:29;;;;;;;2.88;2.40;;;;;;;;;;2099735;28;20048;-77
2022/12/14 01:34:48;;;;;;;3.50;2.70;;;;;;;;;;2098603;28;20029;-76
2022/12/14 01:36:11;;;;;;;2.40;2.13;;;;;;;;;;2099705;28;20040;-76
2022/12/14 01:37:30;;;;;;;2.90;2.47;;;;;;;;;;2104296;28;20028;-76
2022/12/14 01:38:52;;;;;;;3.15;2.40;;;;;;;;;;2100205;28;20036;-76
2022/12/14 01:40:11;;;;;;;;;;;;;;;;;;2099451;28;20059;-76
2022/12/14 01:41:38;;;;;;;3.38;2.33;;;;;;;;;;2101679;28;20373;-77
2022/12/14 01:42:56;;;;;;;4.90;2.67;;;;;;;;;;2099946;28;20025;-76
2022/12/14 01:44:15;;;;;;;2.60;2.38;;;;;;;;;;2096964;28;20036;-76
2022/12/14 01:45:34;;;;;;;2.70;2.50;;;;;;;;;;2097982;28;20058;-76
2022/12/14 01:46:57;;;;;;;2.60;2.40;;;;;;;;;;2094941;28;20024;-76
2022/12/14 01:48:16;;;;;;;5.22;2.40;;;;;;;;;;2097684;28;20107;-76
2022/12/14 01:49:37;;;;;;;2.60;2.40;;;;;;;;;;2094694;28;20062;-77
2022/12/14 01:50:56;;;;;;;2.65;2.33;;;;;;;;;;2095881;28;20510;-76
2022/12/14 01:52:20;;;;;;;2.38;2.08;;;;;;;;;;2095326;28;20119;-77
2022/12/14 01:53:39;;;;;;;2.58;2.38;;;;;;;;;;2096699;28;20147;-76
2022/12/14 01:55:03;;;;;;;2.50;2.30;;;;;;;;;;2095069;28;20110;-76
2022/12/14 01:56:23;;;;;;;2.42;2.22;;;;;;;;;;2100822;28;20028;-77
2022/12/14 01:57:45;;;;;;;2.70;2.50;;;;;;;;;;2096279;28;20032;-76
2022/12/14 01:59:06;;;;;;;1.80;1.63;;;;;;;;;;2096702;28;20020;-77
2022/12/14 02:00:25;;;;;;;3.90;2.58;;;;;;;;;;2096645;28;20596;-76
2022/12/14 02:01:44;;;;;;;2.72;2.13;;;;;;;;;;2096249;28;20028;-76
2022/12/14 02:03:08;;;;;;;3.33;2.40;;;;;;;;;;2096287;28;20024;-76
2022/12/14 02:04:27;;;;;;;2.90;2.38;;;;;;;;;;2097444;28;20502;-76
2022/12/14 02:05:49;;;;;;;3.10;2.45;;;;;;;;;;2095326;28;20032;-76
2022/12/14 02:07:08;;;;;;;2.40;2.20;;;;;;;;;;2093831;28;20040;-78
2022/12/14 02:08:28;;;;;;;2.55;2.33;;;;;;;;;;2097463;28;20024;-76
2022/12/14 02:09:47;;;;;;;3.22;2.40;;;;;;;;;;2094801;28;20604;-76
2022/12/14 02:11:06;;;;;;;3.08;2.22;;;;;;;;;;2096404;28;20067;-76
2022/12/14 02:12:38;;;;;;;2.88;2.63;;;;;;;;;;2097155;28;20024;-76
2022/12/14 02:13:57;;;;;;;2.45;2.25;;;;;;;;;;2099149;28;20028;-77
2022/12/14 02:15:15;;;;;;;2.50;2.30;;;;;;;;;;2094409;28;20146;-76
2022/12/14 02:16:34;;;;;;;2.97;2.60;;;;;;;;;;2101171;28;20020;-76
2022/12/14 02:17:53;;;;;;;3.47;2.25;;;;;;;;;;2101004;28;20037;-77
2022/12/14 02:19:12;;;;;;;3.78;2.45;;;;;;;;;;2105210;28;20028;-77
2022/12/14 02:20:37;;;;;;;3.22;2.75;;;;;;;;;;2100733;28;20032;-77
2022/12/14 02:22:16;;;;;;;3.25;2.53;;;;;;;;;;2106529;28;20028;-77
2022/12/14 02:23:44;;;;;;;2.95;2.70;;;;;;;;;;2101362;28;20036;-77
2022/12/14 02:25:12;;;;;;;3.40;2.97;;;;;;;;;;2099849;28;20072;-77
2022/12/14 02:26:40;;;;;;;2.63;2.40;;;;;;;;;;2092854;28;20033;-77
2022/12/14 02:28:17;;;;;;;3.25;2.45;;;;;;;;;;2094668;28;20024;-77
2022/12/14 02:29:36;;;;;;;2.60;2.40;;;;;;;;;;2100856;28;20024;-76
2022/12/14 02:31:12;;;;;;;2.90;2.55;;;;;;;;;;2099202;28;20025;-77
2022/12/14 02:32:34;;;;;;;6.63;2.95;;;;;;;;;;2101778;28;20052;-77
2022/12/14 02:34:04;;;;;;;2.78;2.58;;;;;;;;;;2101851;28;20071;-77
2022/12/14 02:35:42;;;;;;;5.72;2.60;;;;;;;;;;2101424;28;20048;-77
2022/12/14 02:37:01;;;;;;;2.80;2.50;;;;;;;;;;2102701;28;20032;-77
2022/12/14 02:38:38;;;;;;;3.80;2.78;;;;;;;;;;2101603;28;20051;-77
2022/12/14 02:40:03;;;;;;;2.55;2.35;;;;;;;;;;2094922;28;20135;-77
2022/12/14 02:41:22;;;;;;;2.75;2.55;;;;;;;;;;2097758;28;20435;-77
2022/12/14 02:43:04;;;;;;;16.63;3.08;;;;;;;;;;2102180;28;20032;-77
2022/12/14 02:44:35;;;;;;;3.42;2.63;;;;;;;;;;2100569;28;20024;-77
2022/12/14 02:45:58;;;;;;;4.30;2.60;;;;;;;;;;2100325;28;20036;-77
2022/12/14 02:47:22;;;;;;;2.60;2.25;;;;;;;;;;2099564;28;20029;-77
2022/12/14 02:49:08;;;;;;;4.45;3.03;;;;;;;;;;2099367;28;20462;-77
2022/12/14 02:50:27;;;;;;;2.65;2.38;;;;;;;;;;2076355;28;20110;-77
2022/12/14 02:51:55;;;;;;;3.42;2.38;;;;;;;;;;2096185;28;20052;-77
2022/12/14 02:53:23;;;;;;;3.22;2.70;;;;;;;;;;2100956;28;20028;-77
2022/12/14 02:54:52;;;;;;;3.47;2.58;;;;;;;;;;2099963;28;20146;-77
2022/12/14 02:56:13;;;;;;;3.00;2.65;;;;;;;;;;2107082;28;20412;-78
2022/12/14 02:57:39;;;;;;;3.25;2.90;;;;;;;;;;2104204;28;20025;-76
2022/12/14 02:58:59;;;;;;;3.00;2.65;;;;;;;;;;2100407;28;20025;-77
2022/12/14 03:00:18;;;;;;;2.60;2.30;;;;;;;;;;2100890;28;20040;-77
2022/12/14 03:01:38;;;;;;;2.83;2.53;;;;;;;;;;2096559;28;20032;-77
2022/12/14 03:02:59;;;;;;;4.78;3.05;;;;;;;;;;2103091;28;20024;-77
2022/12/14 03:04:18;;;;;;;3.13;2.58;;;;;;;;;;2100633;28;20028;-77
2022/12/14 03:05:36;;;;;;;3.83;3.00;;;;;;;;;;2095153;28;20025;-78
2022/12/14 03:07:01;;;;;;;4.15;3.00;;;;;;;;;;2096811;28;20040;-77
2022/12/14 03:08:20;;;;;;;3.33;2.97;;;;;;;;;;2097916;28;20032;-77
2022/12/14 03:09:39;;;;;;;4.70;2.72;;;;;;;;;;2098203;28;20412;-77
2022/12/14 03:11:03;;;;;;;3.90;2.92;;;;;;;;;;2096719;28;20040;-77
2022/12/14 03:12:22;;;;;;;3.30;3.00;;;;;;;;;;2098603;28;20500;-77
2022/12/14 03:13:48;;;;;;;3.55;3.05;;;;;;;;;;2099840;28;20461;-77
2022/12/14 03:15:08;;;;;;;3.20;2.80;;;;;;;;;;2110137;28;20424;-75
2022/12/14 03:16:29;;;;;;;4.35;3.22;;;;;;;;;;2104238;28;20033;-77
2022/12/14 03:17:50;;;;;;;4.60;3.03;;;;;;;;;;2109569;28;20031;-77
2022/12/14 03:19:09;;;;;;;3.92;3.17;;;;;;;;;;2099683;28;20036;-77
2022/12/14 03:20:30;;;;;;;3.80;2.80;;;;;;;;;;2097271;28;20028;-77
2022/12/14 03:21:52;;;;;;;6.50;2.72;;;;;;;;;;2091140;28;20566;-76
2022/12/14 03:23:13;;;;;;;5.05;3.10;;;;;;;;;;2098458;28;20079;-77
2022/12/14 03:24:39;;;;;;;4.75;3.00;;;;;;;;;;2099771;28;20020;-77
2022/12/14 03:26:05;;;;;;;2.92;2.72;;;;;;;;;;2101126;28;20113;-77
2022/12/14 03:27:30;;;;;;;3.70;2.90;;;;;;;;;;2102008;28;20429;-77
2022/12/14 03:28:52;;;;;;;3.28;2.97;;;;;;;;;;2096214;28;20028;-77
2022/12/14 03:30:13;;;;;;;3.70;3.38;;;;;;;;;;2099898;28;20395;-77
2022/12/14 03:31:36;;;;;;;3.17;2.88;;;;;;;;;;2099474;28;20477;-77
2022/12/14 03:32:57;;;;;;;3.72;3.33;;;;;;;;;;2100565;28;20525;-77
2022/12/14 03:34:20;;;;;;;4.40;3.58;;;;;;;;;;2102688;28;20409;-77
2022/12/14 03:35:44;;;;;;;3.78;2.97;;;;;;;;;;2109954;28;20021;-77
2022/12/14 03:37:22;;;;;;;4.38;3.33;;;;;;;;;;2100352;28;20413;-77
2022/12/14 03:38:42;;;;;;;3.30;3.00;;;;;;;;;;2099773;28;20458;-77
2022/12/14 03:40:01;;;;;;;4.40;3.30;;;;;;;;;;2097112;28;20044;-77
2022/12/14 03:41:30;;;;;;;5.68;3.90;;;;;;;;;;2095366;28;20462;-77
2022/12/14 03:43:04;;;;;;;3.38;3.05;;;;;;;;;;2098275;28;20151;-77
2022/12/14 03:44:40;;;;;;;6.35;3.88;;;;;;;;;;2100088;28;20488;-77
2022/12/14 03:46:03;;;;;;;10.25;4.40;;;;;;;;;;2101152;28;20040;-77
2022/12/14 03:47:28;;;;;;;3.80;3.30;;;;;;;;;;2093088;28;20032;-77
2022/12/14 03:48:50;;;;;;;5.22;3.40;;;;;;;;;;2096854;28;20524;-77
2022/12/14 03:50:14;;;;;;;4.63;3.40;;;;;;;;;;2099578;28;20498;-76
2022/12/14 03:51:37;;;;;;;4.32;3.65;;;;;;;;;;2099657;28;20032;-77
2022/12/14 03:53:01;;;;;;;9.57;5.88;;;;;;;;;;2099156;28;20556;-78
2022/12/14 03:54:26;;;;;;;4.47;3.30;;;;;;;;;;2098058;28;20099;-77
2022/12/14 03:56:04;;;;;;;3.78;3.30;;;;;;;;;;2099786;28;20393;-77
2022/12/14 03:57:35;;;;;;;6.05;4.97;;;;;;;;;;2101192;28;20405;-77
2022/12/14 03:59:02;;;;;;;6.13;4.90;;;;;;;;;;2102528;28;20056;-77
2022/12/14 04:00:22;;;;;;;4.82;3.75;;;;;;;;;;2099482;28;20032;-77
2022/12/14 04:01:45;;;;;;;6.30;3.80;;;;;;;;;;2100256;28;20021;-76
2022/12/14 04:03:07;;;;;;;4.90;3.80;;;;;;;;;;2107796;28;20032;-77
2022/12/14 04:04:44;;;;;;;4.68;3.72;;;;;;;;;;2104233;28;20027;-77
2022/12/14 04:06:19;;;;;;;5.63;4.00;;;;;;;;;;2107436;28;20028;-77
2022/12/14 04:07:41;;;;;;;4.38;3.65;;;;;;;;;;2100968;28;20044;-77
2022/12/14 04:09:00;;;;;;;2.67;2.47;;;;;;;;;;2101885;28;20028;-77
2022/12/14 04:19:00;;;;;;;5.68;4.22;;;;;;;;;;2099947;28;20028;-78
2022/12/14 04:20:22;;;;;;;43.72;19.10;;;;;;;;;;2099096;28;20028;-77
2022/12/14 04:21:41;;;;;;;45.97;18.88;;;;;;;;;;2095661;28;20036;-78
2022/12/14 04:23:08;;;;;;;18.48;9.23;;;;;;;;;;2095577;28;20060;-78
2022/12/14 04:26:14;;;;;;;12.27;7.05;;;;;;;;;;2101276;28;20161;-78
2022/12/14 04:27:42;;;;;;;8.27;5.03;;;;;;;;;;2092477;28;20036;-78
2022/12/14 04:30:42;;;;;;;15.27;8.45;;;;;;;;;;2100791;28;20025;-77
2022/12/14 04:32:24;;;;;;;9.10;5.40;;;;;;;;;;2101044;28;20028;-77
2022/12/14 04:33:46;;;;;;;5.65;3.45;;;;;;;;;;2088385;28;20459;-78
2022/12/14 04:35:15;;;;;;;4.40;3.97;;;;;;;;;;2091679;28;20044;-78
2022/12/14 04:37:00;;;;;;;6.45;4.05;;;;;;;;;;2095493;28;20020;-77
2022/12/14 04:38:32;;;;;;;5.43;3.97;;;;;;;;;;2100036;28;20210;-77
2022/12/14 04:39:55;;;;;;;6.10;4.13;;;;;;;;;;2098686;28;20028;-77
2022/12/14 04:41:16;;;;;;;4.43;3.90;;;;;;;;;;2100317;28;20021;-78
2022/12/14 04:42:41;;;;;;;4.20;3.63;;;;;;;;;;2100791;28;20111;-78
2022/12/14 04:44:05;;;;;;;4.28;3.40;;;;;;;;;;2109702;28;20039;-77
2022/12/14 04:45:27;;;;;;;5.30;3.88;;;;;;;;;;2101196;28;20443;-77
2022/12/14 04:46:47;;;;;;;4.43;3.55;;;;;;;;;;2096492;28;20020;-77
2022/12/14 04:48:20;;;;;;;5.50;3.80;;;;;;;;;;2096854;28;20029;-77
2022/12/14 04:49:59;;;;;;;6.45;3.83;;;;;;;;;;2099972;28;20020;-78
2022/12/14 04:51:21;;;;;;;9.48;3.78;;;;;;;;;;2109142;28;20055;-77
2022/12/14 04:52:49;;;;;;;4.00;3.70;;;;;;;;;;2104202;28;20036;-77
2022/12/14 04:54:12;;;;;;;6.30;4.53;;;;;;;;;;2099149;28;20032;-78
2022/12/14 04:55:38;;;;;;;7.70;3.67;;;;;;;;;;2099944;28;20021;-78
2022/12/14 04:57:07;;;;;;;6.32;4.15;;;;;;;;;;2100634;28;20052;-77
2022/12/14 04:58:28;;;;;;;4.70;4.07;;;;;;;;;;2099528;28;20114;-77
2022/12/14 04:59:47;;;;;;;4.82;4.20;;;;;;;;;;2099329;28;20040;-77
2022/12/14 05:01:25;;;;;;;4.40;3.97;;;;;;;;;;2100189;28;20056;-76
2022/12/14 05:02:59;;;;;;;4.88;4.30;;;;;;;;;;2098183;28;20048;-77
2022/12/14 05:04:24;;;;;;;4.80;4.10;;;;;;;;;;2100856;28;20032;-77
2022/12/14 05:05:55;;;;;;;5.00;4.18;;;;;;;;;;2101122;28;20028;-77
2022/12/14 05:07:22;;;;;;;6.07;3.80;;;;;;;;;;2107660;28;20544;-77
2022/12/14 05:09:00;;;;;;;6.47;3.70;;;;;;;;;;2092862;28;20036;-76
2022/12/14 05:10:26;;;;;;;5.18;4.13;;;;;;;;;;2097757;28;20012;-77
2022/12/14 05:12:03;;;;;;;5.43;3.72;;;;;;;;;;2097471;28;20043;-77
2022/12/14 05:13:25;;;;;;;5.20;3.88;;;;;;;;;;2100014;28;20040;-77
2022/12/14 05:14:55;;;;;;;4.43;4.03;;;;;;;;;;2099140;28;20036;-77
2022/12/14 05:16:15;;;;;;;6.00;4.43;;;;;;;;;;2099287;28;20762;-77
2022/12/14 05:17:36;;;;;;;8.80;4.15;;;;;;;;;;2097314;28;20045;-76
2022/12/14 05:18:55;;;;;;;6.75;3.95;;;;;;;;;;2090717;28;20040;-77
2022/12/14 05:20:15;;;;;;;5.75;3.97;;;;;;;;;;2092623;28;20040;-77
2022/12/14 05:21:46;;;;;;;7.55;4.47;;;;;;;;;;2093699;28;20028;-77
2022/12/14 05:23:06;;;;;;;10.52;4.38;;;;;;;;;;2101130;28;20481;-76
2022/12/14 05:24:25;;;;;;;4.97;3.92;;;;;;;;;;2098645;28;20028;-77
2022/12/14 05:25:44;;;;;;;8.18;5.03;;;;;;;;;;2100898;28;20397;-77
2022/12/14 05:27:03;;;;;;;6.95;4.82;;;;;;;;;;2100057;28;20485;-76
2022/12/14 05:28:21;;;;;;;8.32;4.55;;;;;;;;;;2094424;28;20044;-77
2022/12/14 05:29:41;;;;;;;11.50;5.50;;;;;;;;;;2093925;28;20028;-78
2022/12/14 05:31:00;;;;;;;8.85;5.90;;;;;;;;;;2096645;28;20032;-78
2022/12/14 05:32:19;;;;;;;7.63;4.70;;;;;;;;;;2094924;28;20064;-78
2022/12/14 05:33:38;;;;;;;6.20;4.85;;;;;;;;;;2097558;28;20052;-78
2022/12/14 05:34:57;;;;;;;7.25;4.88;;;;;;;;;;2104905;28;20416;-77
2022/12/14 05:36:16;;;;;;;7.28;4.97;;;;;;;;;;2099231;28;20021;-78
2022/12/14 05:37:35;;;;;;;8.05;5.22;;;;;;;;;;2100041;28;20032;-76
2022/12/14 05:38:53;;;;;;;7.38;4.38;;;;;;;;;;2090722;28;20068;-77
2022/12/14 05:40:12;;;;;;;5.78;4.40;;;;;;;;;;2095910;28;20111;-76
2022/12/14 05:41:31;;;;;;;7.53;4.68;;;;;;;;;;2096902;28;20044;-76
2022/12/14 05:42:50;;;;;;;5.93;4.60;;;;;;;;;;2098106;28;20142;-77
2022/12/14 05:44:10;;;;;;;6.47;4.72;;;;;;;;;;2090803;28;20032;-77
2022/12/14 05:45:29;;;;;;;9.30;5.07;;;;;;;;;;2096879;28;20028;-76
2022/12/14 05:46:47;;;;;;;8.88;5.03;;;;;;;;;;2098208;28;20024;-77
2022/12/14 05:48:06;;;;;;;8.00;5.15;;;;;;;;;;2094597;28;20431;-77
2022/12/14 05:49:25;;;;;;;5.97;4.38;;;;;;;;;;2095712;28;20020;-78
2022/12/14 05:50:44;;;;;;;7.25;5.00;;;;;;;;;;2097956;28;20017;-76
2022/12/14 05:52:03;;;;;;;5.50;4.40;;;;;;;;;;2099339;28;20020;-76
2022/12/14 05:53:22;;;;;;;8.80;4.82;;;;;;;;;;2089854;28;20028;-76
2022/12/14 05:54:41;;;;;;;7.15;4.60;;;;;;;;;;2098479;28;20385;-76
2022/12/14 05:56:00;;;;;;;6.03;4.40;;;;;;;;;;2098333;28;21468;-78
2022/12/14 05:57:19;;;;;;;4.93;4.25;;;;;;;;;;2096045;28;20035;-77
2022/12/14 05:58:38;;;;;;;11.77;5.55;;;;;;;;;;2096824;28;20123;-77
2022/12/14 05:59:57;;;;;;;4.28;3.88;;;;;;;;;;2096680;28;20040;-76
2022/12/14 06:01:16;;;;;;;5.28;4.53;;;;;;;;;;2099341;28;20036;-77
2022/12/14 06:02:35;;;;;;;7.18;4.32;;;;;;;;;;2098083;28;20064;-76
2022/12/14 06:03:54;;;;;;;6.80;4.25;;;;;;;;;;2094942;28;20033;-76
2022/12/14 06:05:13;;;;;;;8.68;4.22;;;;;;;;;;2098177;28;20036;-76
2022/12/14 06:06:32;;;;;;;6.80;4.60;;;;;;;;;;2096950;28;20029;-76
2022/12/14 06:07:52;;;;;;;10.52;4.68;;;;;;;;;;2096539;28;20059;-78
2022/12/14 06:09:14;;;;;;;6.50;4.20;;;;;;;;;;2095722;28;20024;-75
2022/12/14 06:10:33;;;;;;;5.03;4.38;;;;;;;;;;2098136;28;20021;-75
2022/12/14 06:11:52;;;;;;;7.30;4.40;;;;;;;;;;2099883;28;20028;-77
2022/12/14 06:13:10;;;;;;;7.63;4.32;;;;;;;;;;2099972;28;20142;-75
2022/12/14 06:14:29;;;;;;;6.03;4.35;;;;;;;;;;2097320;28;20028;-75
2022/12/14 06:15:48;;;;;;;7.03;4.20;;;;;;;;;;2103561;28;20409;-76
2022/12/14 06:17:07;;;;;;;6.00;4.43;;;;;;;;;;2099695;28;20060;-76
2022/12/14 06:18:26;;;;;;;8.73;4.00;;;;;;;;;;2097095;28;20036;-78
2022/12/14 06:19:45;;;;;;;6.28;4.47;;;;;;;;;;2098671;28;20024;-76
2022/12/14 06:21:04;;;;;;;8.95;5.03;;;;;;;;;;2099319;28;20032;-76
2022/12/14 06:22:24;;;;;;;11.73;7.13;;;;;;;;;;2100187;28;20054;-76
2022/12/14 06:23:44;;;;;;;12.05;7.22;;;;;;;;;;2099412;28;20054;-76
2022/12/14 06:25:03;;;;;;;12.70;7.05;;;;;;;;;;2096958;28;20036;-76
2022/12/14 06:26:23;;;;;;;4.43;3.97;;;;;;;;;;2098921;28;20028;-76
2022/12/14 06:27:42;;;;;;;11.35;4.90;;;;;;;;;;2098210;28;20127;-76
2022/12/14 06:29:01;;;;;;;6.43;4.72;;;;;;;;;;2099534;28;20032;-76
2022/12/14 06:30:20;;;;;;;7.82;4.88;;;;;;;;;;2100143;28;20504;-76
2022/12/14 06:31:39;;;;;;;6.28;4.10;;;;;;;;;;2096568;28;20032;-75
2022/12/14 06:32:58;;;;;;;10.15;4.68;;;;;;;;;;2099995;28;20405;-76
2022/12/14 06:34:17;;;;;;;9.00;4.88;;;;;;;;;;2100776;28;20032;-76
2022/12/14 06:35:41;;;;;;;5.70;4.13;;;;;;;;;;2099531;28;20032;-76
2022/12/14 06:36:59;;;;;;;5.85;5.22;;;;;;;;;;2099502;28;20049;-76
2022/12/14 06:38:18;;;;;;;8.43;4.32;;;;;;;;;;2095890;28;20040;-77
2022/12/14 06:39:37;;;;;;;9.90;4.90;;;;;;;;;;2096409;28;20100;-77
2022/12/14 06:40:56;;;;;;;5.78;4.28;;;;;;;;;;2100926;28;20056;-76
2022/12/14 06:42:15;;;;;;;4.30;3.90;;;;;;;;;;2100894;28;20028;-76
2022/12/14 06:43:34;;;;;;;7.50;4.60;;;;;;;;;;2100558;28;20029;-76
2022/12/14 06:44:53;;;;;;;5.68;4.38;;;;;;;;;;2099884;28;20033;-76
2022/12/14 06:46:13;;;;;;;4.95;3.55;;;;;;;;;;2094876;28;20068;-76
2022/12/14 06:47:33;;;;;;;7.25;4.43;;;;;;;;;;2101085;28;20497;-76
2022/12/14 06:48:53;;;;;;;15.60;5.47;;;;;;;;;;2099780;28;20017;-76
2022/12/14 06:50:12;;;;;;;7.70;4.43;;;;;;;;;;2099296;28;20016;-75
2022/12/14 06:51:31;;;;;;;4.95;4.28;;;;;;;;;;2100650;28;20028;-77
2022/12/14 06:52:50;;;;;;;7.22;4.75;;;;;;;;;;2099875;28;20099;-75
2022/12/14 06:54:10;;;;;;;6.32;4.35;;;;;;;;;;2097734;28;20021;-76
2022/12/14 06:55:29;;;;;;;4.18;3.72;;;;;;;;;;2095806;28;20024;-76
2022/12/14 06:56:48;;;;;;;12.13;4.68;;;;;;;;;;2095417;28;20025;-76
2022/12/14 06:58:10;;;;;;;9.68;5.30;;;;;;;;;;2099715;28;20036;-76
2022/12/14 06:59:29;;;;;;;5.70;4.55;;;;;;;;;;2105268;28;20128;-75
2022/12/14 07:00:48;;;;;;;6.90;4.93;;;;;;;;;;2098450;28;20025;-76
2022/12/14 07:02:07;;;;;;;6.72;4.57;;;;;;;;;;2098412;28;20029;-76
2022/12/14 07:03:26;;;;;;;7.05;5.85;;;;;;;;;;2088926;28;20029;-76
2022/12/14 07:04:45;;;;;;;8.43;5.10;;;;;;;;;;2094254;28;20024;-75
2022/12/14 07:06:05;;;;;;;6.10;4.50;;;;;;;;;;2101979;28;20024;-76
2022/12/14 07:07:23;;;;;;;6.05;5.20;;;;;;;;;;2101908;28;20032;-76
2022/12/14 07:08:42;;;;;;;10.45;5.60;;;;;;;;;;2100849;28;20050;-75
2022/12/14 07:10:02;;;;;;;6.57;4.88;;;;;;;;;;2100888;28;20485;-76
2022/12/14 07:11:21;;;;;;;6.63;4.80;;;;;;;;;;2101179;28;20060;-75
2022/12/14 07:12:40;;;;;;;6.47;4.80;;;;;;;;;;2096956;28;20497;-76
2022/12/14 07:14:01;;;;;;;5.18;4.40;;;;;;;;;;2101976;28;20477;-76
2022/12/14 07:15:20;;;;;;;5.15;4.40;;;;;;;;;;2102582;28;20025;-75
2022/12/14 07:16:39;;;;;;;7.22;4.18;;;;;;;;;;2100470;28;20036;-76
2022/12/14 07:17:58;;;;;;;5.20;4.57;;;;;;;;;;2096116;28;20032;-77
2022/12/14 07:19:18;;;;;;;7.53;5.13;;;;;;;;;;2096318;28;20025;-76
2022/12/14 07:20:37;;;;;;;6.68;5.13;;;;;;;;;;2097027;28;20028;-77
2022/12/14 07:21:55;;;;;;;6.63;4.63;;;;;;;;;;2098943;28;20033;-77
2022/12/14 07:23:14;;;;;;;6.65;5.32;;;;;;;;;;2101968;28;20021;-75
2022/12/14 07:24:33;;;;;;;8.95;4.80;;;;;;;;;;2100516;28;20032;-76
2022/12/14 07:25:52;;;;;;;8.23;5.03;;;;;;;;;;2099881;28;20024;-75
2022/12/14 07:27:11;;;;;;;6.85;4.88;;;;;;;;;;2101472;28;20028;-76
2022/12/14 07:28:31;;;;;;;6.47;4.82;;;;;;;;;;2102584;28;20036;-76
2022/12/14 07:29:51;;;;;;;5.20;4.43;;;;;;;;;;2102709;28;20411;-75
2022/12/14 07:31:15;;;;;;;6.63;5.05;;;;;;;;;;2100080;28;20043;-76
2022/12/14 07:32:33;;;;;;;5.20;4.60;;;;;;;;;;2101794;28;20024;-76
2022/12/14 07:33:53;;;;;;;6.05;4.97;;;;;;;;;;2101536;28;20487;-76
2022/12/14 07:35:12;;;;;;;7.40;4.70;;;;;;;;;;2102476;28;20104;-76
2022/12/14 07:36:31;;;;;;;6.03;4.25;;;;;;;;;;2101793;28;20124;-76
2022/12/14 07:37:50;;;;;;;5.97;4.88;;;;;;;;;;2095991;28;20024;-76
2022/12/14 07:39:12;;;;;;;5.60;4.97;;;;;;;;;;2101236;28;20033;-75
2022/12/14 07:40:33;;;;;;;6.15;4.68;;;;;;;;;;2100032;28;20020;-76
2022/12/14 07:41:53;;;;;;;6.35;4.25;;;;;;;;;;2098384;28;20040;-77
2022/12/14 07:43:12;;;;;;;7.35;4.60;;;;;;;;;;2101034;28;20032;-76
2022/12/14 07:44:30;;;;;;;6.53;4.53;;;;;;;;;;2098864;28;20029;-76
2022/12/14 07:45:49;;;;;;;6.22;4.95;;;;;;;;;;2100680;28;20032;-76
2022/12/14 07:47:08;;;;;;;7.13;4.78;;;;;;;;;;2100630;28;20086;-76
2022/12/14 07:48:27;;;;;;;5.25;4.53;;;;;;;;;;2099013;28;20028;-76
2022/12/14 07:49:47;;;;;;;5.88;4.75;;;;;;;;;;2098069;28;20028;-76
2022/12/14 07:51:07;;;;;;;5.15;4.53;;;;;;;;;;2090524;28;20032;-77
2022/12/14 07:52:26;;;;;;;8.10;5.22;;;;;;;;;;2087136;28;20104;-76
2022/12/14 07:53:48;;;;;;;5.85;5.20;;;;;;;;;;2092647;28;20029;-77
2022/12/14 07:55:07;;;;;;;;;;;;;;;;;;2106658;28;20435;-76
2022/12/14 07:56:27;;;;;;;12.80;5.70;;;;;;;;;;2099337;28;19928;-78
2022/12/14 07:57:46;;;;;;;8.40;5.38;;;;;;;;;;2095207;28;20070;-74
2022/12/14 07:59:07;;;;;;;7.22;4.97;;;;;;;;;;2101004;28;20028;-76
2022/12/14 08:00:26;;;;;;;7.18;5.30;;;;;;;;;;2098226;28;20032;-76
2022/12/14 08:01:45;;;;;;;9.32;5.10;;;;;;;;;;2096587;28;20032;-76
2022/12/14 08:03:04;;;;;;;6.43;5.15;;;;;;;;;;2098344;28;20505;-76
2022/12/14 08:04:23;;;;;;;7.53;5.13;;;;;;;;;;2101208;28;20036;-76
2022/12/14 08:05:42;;;;;;;10.98;5.30;;;;;;;;;;2100326;28;20028;-76
2022/12/14 08:07:01;;;;;;;10.68;5.22;;;;;;;;;;2097603;28;20024;-76
2022/12/14 08:08:19;;;;;;;12.07;6.20;;;;;;;;;;2097743;28;20025;-78
2022/12/14 08:09:38;;;;;;;8.13;5.88;;;;;;;;;;2100250;28;20020;-77
2022/12/14 08:10:57;;;;;;;11.68;5.75;;;;;;;;;;2100802;28;20037;-77
2022/12/14 08:12:16;;;;;;;8.50;5.90;;;;;;;;;;2101409;28;20032;-76
2022/12/14 08:13:37;;;;;;;9.63;6.50;;;;;;;;;;2101441;28;20032;-76
2022/12/14 08:14:56;;;;;;;10.05;6.13;;;;;;;;;;2098761;28;20491;-76
2022/12/14 08:16:15;;;;;;;11.80;7.18;;;;;;;;;;2100236;28;20033;-76
2022/12/14 08:17:34;;;;;;;9.07;6.35;;;;;;;;;;2100158;28;20047;-77
2022/12/14 08:18:54;;;;;;;6.15;5.57;;;;;;;;;;2098249;28;20086;-76
2022/12/14 08:20:13;;;;;;;9.32;6.00;;;;;;;;;;2099904;28;20060;-76
2022/12/14 08:21:33;;;;;;;10.38;5.85;;;;;;;;;;2099945;28;20028;-76